Nason, Mississippi
Current Conditions -  °F | °C
As of 2:53 PM on Tuesday 21 Oct 2014 (Local Time) from KGWO Reporting Station
Scattered Clouds Scattered Clouds  
Wind Chill: 80°   Ceiling: Unl
Heat Index: 80°   Visibility: 10mi
Dew Point: 56°   Wind: 8mph
Humidity: 43%   Direction: 330°NNW
Pressure: 30.02"   Gusts: NA
Location:  33.7549°N, 89.9608°W
Report Text: KGWO 211953Z AUTO 33007KT 10SM SCT049 27/13 A3002 RMK AO2 SLP165 T02670133 TSNO
Loading
Personal Weather Stations






























Interactive Weather Map
Tropical Storm Tracking
New forecast layout! Learn more

10-Day Weather Forecast

Advertisements
Track Severe Weather on mobile